Time;durP1;ratioP1;P1;durP2;ratioP2;P2;SDS_P1;SDS_P2;PMS_P1;PMS_P2;Temp;Humidity;BMP_temperature;BMP_pressure;BME280_temperature;BME280_humidity;BME280_pressure;Samples;Min_cycle;Max_cycle;Signal;HPM_P1;HPM_P2
2020/12/20 00:00:24;;;;;;;116.82;42.97;;;;;;;-2.38;100.00;100012.44;2113687;28;20220;-71
2020/12/20 00:01:26;;;;;;;114.83;42.77;;;;;;;-2.28;100.00;100012.91;2113929;28;20251;-71
2020/12/20 00:02:26;;;;;;;106.32;42.45;;;;;;;-2.28;100.00;100012.91;2122954;27;21298;-71
2020/12/20 00:03:28;;;;;;;112.43;46.80;;;;;;;-2.29;100.00;100013.91;2113449;28;20550;-70
2020/12/20 00:04:28;;;;;;;100.25;41.95;;;;;;;-2.25;100.00;100019.59;2114002;28;20225;-70
2020/12/20 00:05:30;;;;;;;95.87;42.10;;;;;;;-2.39;100.00;99991.72;2122715;27;20219;-70
2020/12/20 00:06:37;;;;;;;82.68;39.22;;;;;;;-2.29;100.00;100013.09;2113644;28;20247;-70
2020/12/20 00:07:38;;;;;;;118.22;40.83;;;;;;;-2.17;100.00;100016.84;2114216;27;20229;-71
2020/12/20 00:08:39;;;;;;;140.52;41.55;;;;;;;-2.18;100.00;100017.81;2122700;27;20361;-71
2020/12/20 00:09:41;;;;;;;131.30;42.90;;;;;;;-2.21;100.00;100006.94;2112992;28;20220;-70
2020/12/20 00:10:41;;;;;;;99.97;40.97;;;;;;;-2.23;100.00;100004.50;2113930;28;22982;-71
2020/12/20 00:11:44;;;;;;;125.67;42.37;;;;;;;-2.16;100.00;100007.19;2122858;27;20243;-71
2020/12/20 00:12:44;;;;;;;122.00;41.30;;;;;;;-2.13;100.00;100004.19;2122651;27;20224;-70
2020/12/20 00:13:46;;;;;;;123.43;43.03;;;;;;;-2.15;100.00;100008.78;2113552;28;20350;-71
2020/12/20 00:14:46;;;;;;;122.47;43.25;;;;;;;-2.18;100.00;99998.69;2113706;28;20820;-70
2020/12/20 00:15:47;;;;;;;105.63;41.63;;;;;;;-2.17;100.00;99995.09;2122788;27;20615;-71
2020/12/20 00:16:48;;;;;;;184.98;42.83;;;;;;;-2.23;100.00;100001.91;2113443;28;20236;-71
2020/12/20 00:17:50;;;;;;;156.57;43.40;;;;;;;-2.29;100.00;100000.84;2113832;28;20294;-70
2020/12/20 00:18:51;;;;;;;111.68;42.78;;;;;;;-2.25;100.00;100003.91;2113558;28;20224;-72
2020/12/20 00:19:52;;;;;;;143.47;44.73;;;;;;;-2.23;100.00;100004.50;2113040;28;20216;-72
2020/12/20 00:20:53;;;;;;;133.55;44.25;;;;;;;-2.21;100.00;100004.31;2104411;28;20232;-71
2020/12/20 00:21:55;;;;;;;183.70;44.13;;;;;;;-2.28;100.00;99999.03;2113032;28;20228;-71
2020/12/20 00:22:56;;;;;;;132.52;41.22;;;;;;;-2.23;100.00;99990.63;2113990;28;20225;-71
2020/12/20 00:23:58;;;;;;;140.47;41.33;;;;;;;-2.19;100.00;99997.91;2113281;28;20236;-70
2020/12/20 00:24:59;;;;;;;200.38;46.75;;;;;;;-2.21;100.00;100006.94;2113647;28;20224;-71
2020/12/20 00:26:00;;;;;;;144.60;41.27;;;;;;;-2.23;100.00;100007.13;2113036;28;20311;-71
2020/12/20 00:27:02;;;;;;;127.97;41.40;;;;;;;-2.28;100.00;100009.47;2100464;28;20232;-71
2020/12/20 00:28:03;;;;;;;131.48;40.28;;;;;;;-2.20;100.00;100004.13;2105113;28;20225;-71
2020/12/20 00:29:04;;;;;;;217.33;43.80;;;;;;;-2.20;100.00;100011.16;2113631;28;20743;-70
2020/12/20 00:30:07;;;;;;;166.63;42.25;;;;;;;-2.19;100.00;100007.53;2112962;28;20220;-70
2020/12/20 00:31:08;;;;;;;231.10;45.22;;;;;;;-2.22;100.00;100007.94;2113331;28;20413;-70
2020/12/20 00:32:11;;;;;;;155.93;44.20;;;;;;;-2.25;100.00;100009.13;2113018;28;20349;-70
2020/12/20 00:33:11;;;;;;;230.48;42.28;;;;;;;-2.23;100.00;100007.13;2113904;27;20586;-70
2020/12/20 00:34:13;;;;;;;130.43;39.27;;;;;;;-2.17;100.00;100006.38;2113613;28;20220;-70
2020/12/20 00:35:13;;;;;;;176.98;40.70;;;;;;;-2.19;100.00;99997.91;2113474;28;20216;-70
2020/12/20 00:36:15;;;;;;;156.20;39.27;;;;;;;-2.13;100.00;100001.56;2122523;27;20230;-70
2020/12/20 00:37:16;;;;;;;145.70;39.17;;;;;;;-2.18;100.00;99996.91;2113003;28;20224;-70
2020/12/20 00:38:16;;;;;;;161.43;43.97;;;;;;;-2.25;100.00;100013.56;2104707;28;20224;-70
2020/12/20 00:39:19;;;;;;;176.27;53.50;;;;;;;-2.29;100.00;100003.44;2113585;28;20228;-71
2020/12/20 00:40:20;;;;;;;175.65;63.88;;;;;;;-2.38;100.00;99994.13;2122746;27;20223;-70
2020/12/20 00:41:21;;;;;;;191.03;48.73;;;;;;;-2.36;100.00;100004.41;2122708;27;20665;-71
2020/12/20 00:42:23;;;;;;;198.27;48.72;;;;;;;-2.41;100.00;99997.13;2113060;28;20307;-70
2020/12/20 00:43:24;;;;;;;135.75;44.20;;;;;;;-2.26;100.00;99999.66;2104401;28;20290;-70
2020/12/20 00:44:25;;;;;;;158.53;45.33;;;;;;;-2.26;100.00;100007.47;2113352;28;20255;-70
2020/12/20 00:45:26;;;;;;;163.88;49.35;;;;;;;-2.27;100.00;100004.06;2122471;27;20216;-70
2020/12/20 00:46:27;;;;;;;131.17;43.23;;;;;;;-2.28;100.00;99994.63;2113021;28;20835;-72
2020/12/20 00:47:28;;;;;;;173.85;45.78;;;;;;;-2.34;100.00;99998.00;2104668;28;20221;-72
2020/12/20 00:48:29;;;;;;;153.30;43.90;;;;;;;-2.46;100.00;99990.84;2113503;28;20229;-70
2020/12/20 00:49:31;;;;;;;175.95;48.40;;;;;;;-2.39;100.00;99996.94;2113332;28;20705;-70
2020/12/20 00:50:32;;;;;;;207.18;48.40;;;;;;;-2.39;100.00;99997.75;2104869;28;20221;-70
2020/12/20 00:51:33;;;;;;;168.40;46.85;;;;;;;-2.37;100.00;100002.78;2104825;28;20695;-71
2020/12/20 00:52:35;;;;;;;120.20;46.80;;;;;;;-2.39;100.00;100002.97;2104774;28;20225;-70
2020/12/20 00:53:37;;;;;;;133.40;46.17;;;;;;;-2.36;100.00;99999.16;2104869;28;20227;-71
2020/12/20 00:54:40;;;;;;;165.30;47.72;;;;;;;-2.28;100.00;99997.22;2104512;28;20606;-71
2020/12/20 00:55:48;;;;;;;248.35;48.80;;;;;;;-2.33;100.00;100001.41;2113372;28;20236;-72
2020/12/20 00:56:49;;;;;;;182.23;46.65;;;;;;;-2.33;100.00;99988.34;2105123;28;20221;-71
2020/12/20 00:57:50;;;;;;;174.38;46.47;;;;;;;-2.34;100.00;99989.34;2104988;28;20221;-70
2020/12/20 00:58:52;;;;;;;198.75;49.53;;;;;;;-2.36;100.00;99989.53;2112848;28;20224;-73
2020/12/20 00:59:53;;;;;;;171.98;48.08;;;;;;;-2.34;100.00;99986.75;2104945;28;20225;-70
2020/12/20 01:00:55;;;;;;;214.32;48.08;;;;;;;-2.34;100.00;99990.16;2104891;28;20251;-71
2020/12/20 01:01:56;;;;;;;139.50;45.03;;;;;;;-2.32;100.00;99989.97;2103857;28;20221;-71
2020/12/20 01:02:57;;;;;;;210.30;49.35;;;;;;;-2.29;100.00;99998.22;2112866;28;20228;-70
2020/12/20 01:03:58;;;;;;;141.63;44.17;;;;;;;-2.24;100.00;99996.88;2108984;28;20225;-71
2020/12/20 01:04:59;;;;;;;172.57;46.83;;;;;;;-2.29;100.00;99981.75;2113121;28;20217;-72
2020/12/20 01:06:00;;;;;;;159.45;50.03;;;;;;;-2.35;100.00;99982.50;2113367;28;20237;-71
2020/12/20 01:07:02;;;;;;;226.47;52.40;;;;;;;-2.32;100.00;99992.59;2113188;28;20221;-70
2020/12/20 01:08:09;;;;;;;171.20;49.35;;;;;;;-2.30;100.00;99985.34;2102319;28;20252;-72
2020/12/20 01:09:15;;;;;;;195.18;52.35;;;;;;;-2.30;100.00;99991.38;2096746;28;20734;-70
2020/12/20 01:10:17;;;;;;;164.23;52.45;;;;;;;-2.32;100.00;99989.97;2105808;28;20217;-71
2020/12/20 01:11:19;;;;;;;209.07;51.35;;;;;;;-2.33;100.00;99986.56;2104721;28;20270;-70
2020/12/20 01:12:20;;;;;;;178.30;54.08;;;;;;;-2.33;100.00;99985.75;2104679;28;20225;-71
2020/12/20 01:13:42;;;;;;;199.93;52.05;;;;;;;-2.31;100.00;99992.38;2106507;28;20308;-71
2020/12/20 01:14:43;;;;;;;174.68;52.35;;;;;;;-2.37;100.00;99984.50;2104749;28;20221;-70
2020/12/20 01:15:45;;;;;;;148.67;51.43;;;;;;;-2.45;100.00;99988.03;2096360;28;20218;-71
2020/12/20 01:16:45;;;;;;;173.02;54.28;;;;;;;-2.50;100.00;99984.41;2104752;28;20232;-70
2020/12/20 01:17:46;;;;;;;138.93;51.30;;;;;;;-2.54;100.00;99978.72;2104740;28;20245;-70
2020/12/20 01:18:48;;;;;;;209.65;55.85;;;;;;;-2.45;100.00;99974.97;2102282;28;20292;-70
2020/12/20 01:19:49;;;;;;;285.13;55.70;;;;;;;-2.35;100.00;99990.31;2104700;28;20229;-70
2020/12/20 01:20:53;;;;;;;193.75;55.63;;;;;;;-2.45;100.00;99982.00;2102429;28;20225;-71
2020/12/20 01:21:55;;;;;;;190.40;54.55;;;;;;;-2.46;100.00;99991.66;2104391;28;20587;-71
2020/12/20 01:22:56;;;;;;;220.73;51.15;;;;;;;-2.48;100.00;99985.81;2104866;28;20259;-71
2020/12/20 01:23:57;;;;;;;178.77;51.23;;;;;;;-2.54;100.00;99986.56;2104697;28;20229;-70
2020/12/20 01:24:58;;;;;;;259.45;52.08;;;;;;;-2.52;100.00;99984.56;2096157;28;20222;-71
2020/12/20 01:26:01;;;;;;;287.75;51.75;;;;;;;-2.55;100.00;99982.34;2104770;28;20229;-70
2020/12/20 01:27:02;;;;;;;196.55;50.88;;;;;;;-2.53;100.00;99985.56;2119418;27;20220;-70
2020/12/20 01:28:04;;;;;;;215.48;52.33;;;;;;;-2.58;100.00;99988.75;2112973;28;20718;-71
2020/12/20 01:29:11;;;;;;;236.45;52.13;;;;;;;-2.56;100.00;99985.94;2104988;28;20229;-70
2020/12/20 01:30:13;;;;;;;154.88;49.80;;;;;;;-2.63;100.00;99978.03;2113040;28;20265;-71
2020/12/20 01:31:14;;;;;;;196.05;50.30;;;;;;;-2.62;100.00;99979.66;2104550;28;20221;-70
2020/12/20 01:32:28;;;;;;;153.65;49.30;;;;;;;-2.60;100.00;99980.31;2106099;28;20220;-70
2020/12/20 01:33:38;;;;;;;281.30;52.60;;;;;;;-2.68;100.00;99975.19;2112703;28;20737;-70
2020/12/20 01:34:45;;;;;;;177.63;51.65;;;;;;;-2.69;100.00;99980.63;2105384;28;20229;-71
2020/12/20 01:35:47;;;;;;;185.70;51.42;;;;;;;-2.72;100.00;99973.13;2104789;28;20221;-70
2020/12/20 01:36:48;;;;;;;231.47;54.20;;;;;;;-2.70;100.00;99973.75;2104536;28;20229;-70
2020/12/20 01:37:49;;;;;;;220.05;52.35;;;;;;;-2.72;100.00;99973.94;2104602;28;20244;-71
2020/12/20 01:38:51;;;;;;;180.38;53.15;;;;;;;-2.75;100.00;99976.13;2104750;28;20706;-70
2020/12/20 01:39:52;;;;;;;152.75;51.25;;;;;;;-2.74;100.00;99977.75;2112667;28;20274;-71
2020/12/20 01:40:54;;;;;;;255.10;53.60;;;;;;;-2.73;100.00;99979.34;2104536;28;20249;-70
2020/12/20 01:41:57;;;;;;;287.42;55.10;;;;;;;-2.78;100.00;99972.09;2104817;28;20229;-70
2020/12/20 01:43:06;;;;;;;159.73;49.92;;;;;;;-2.75;100.00;99976.13;2112926;28;20313;-70
2020/12/20 01:44:09;;;;;;;125.10;47.92;;;;;;;-2.64;100.00;99973.00;2104618;28;20232;-70
2020/12/20 01:45:21;;;;;;;140.23;48.83;;;;;;;-2.59;100.00;99968.84;2105695;28;20221;-70
2020/12/20 01:46:23;;;;;;;152.32;49.38;;;;;;;-2.56;100.00;99970.28;2104696;28;20262;-71
2020/12/20 01:47:26;;;;;;;141.13;49.95;;;;;;;-2.57;100.00;99971.28;2113184;28;20216;-70
2020/12/20 01:48:27;;;;;;;160.27;51.35;;;;;;;-2.57;100.00;99977.31;2112878;28;20598;-71
2020/12/20 01:49:28;;;;;;;211.37;51.40;;;;;;;-2.58;100.00;99974.88;2104362;28;20230;-70
2020/12/20 01:50:29;;;;;;;158.27;48.35;;;;;;;-2.56;100.00;99976.31;2112776;28;20261;-70
2020/12/20 01:51:33;;;;;;;185.00;49.42;;;;;;;-2.58;100.00;99969.66;2113224;28;20212;-70
2020/12/20 01:52:40;;;;;;;171.77;48.83;;;;;;;-2.62;100.00;99971.00;2112514;28;20822;-70
2020/12/20 01:53:45;;;;;;;139.98;46.95;;;;;;;-2.67;100.00;99971.59;2104809;28;20221;-70
2020/12/20 01:54:50;;;;;;;283.67;53.60;;;;;;;-2.71;100.00;99966.91;2104869;28;20686;-70
2020/12/20 01:55:59;;;;;;;173.80;48.88;;;;;;;-2.76;100.00;99964.06;2105590;28;20686;-70
2020/12/20 01:57:03;;;;;;;153.55;50.50;;;;;;;-2.73;100.00;99971.53;2104635;28;20268;-70
2020/12/20 01:58:20;;;;;;;184.30;62.00;;;;;;;-2.63;100.00;99969.41;2106039;28;20225;-70
2020/12/20 01:59:33;;;;;;;208.25;70.50;;;;;;;-2.28;100.00;99965.06;2105893;28;20573;-70
2020/12/20 02:00:35;;;;;;;290.25;60.60;;;;;;;-2.25;100.00;99961.28;2113029;28;20269;-70
2020/12/20 02:01:59;;;;;;;274.70;56.72;;;;;;;-2.41;100.00;99952.72;2112726;28;20220;-70
2020/12/20 02:03:09;;;;;;;225.70;55.63;;;;;;;-2.35;100.00;99964.19;2104026;28;20245;-70
2020/12/20 02:04:12;;;;;;;204.07;52.08;;;;;;;-2.42;100.00;99961.56;2096325;28;20275;-70
2020/12/20 02:05:20;;;;;;;204.02;54.05;;;;;;;-2.41;100.00;99963.16;2104878;28;20232;-71
2020/12/20 02:06:23;;;;;;;187.95;52.92;;;;;;;-2.51;100.00;99964.50;2104251;28;20228;-70
2020/12/20 02:07:30;;;;;;;160.68;50.88;;;;;;;-2.54;100.00;99965.66;2112642;28;20221;-70
2020/12/20 02:08:32;;;;;;;177.65;55.47;;;;;;;-2.53;100.00;99967.28;2104474;28;20695;-70
2020/12/20 02:09:37;;;;;;;158.57;53.65;;;;;;;-2.47;100.00;99973.56;2112272;28;20228;-71
2020/12/20 02:10:39;;;;;;;245.32;57.30;;;;;;;-2.54;100.00;99965.66;2112714;28;20285;-70
2020/12/20 02:11:39;;;;;;;344.85;58.80;;;;;;;-2.66;100.00;99970.59;2112822;28;20225;-70
2020/12/20 02:12:48;;;;;;;276.55;57.38;;;;;;;-2.69;100.00;99967.56;2112668;28;20257;-70
2020/12/20 02:13:56;;;;;;;192.63;53.03;;;;;;;-2.80;100.00;99957.59;2104834;28;20229;-71
2020/12/20 02:15:06;;;;;;;226.30;56.47;;;;;;;-2.81;100.00;99954.16;2112495;28;20270;-70
2020/12/20 02:16:07;;;;;;;235.15;58.50;;;;;;;-2.91;100.00;99949.25;2112544;28;20237;-71
2020/12/20 02:17:09;;;;;;;244.25;62.47;;;;;;;-2.92;100.00;99959.91;2102342;28;20300;-71
2020/12/20 02:18:15;;;;;;;229.95;55.58;;;;;;;-2.83;100.00;99961.41;2105181;28;20245;-70
2020/12/20 02:19:21;;;;;;;227.48;57.88;;;;;;;-2.83;100.00;99957.97;2112766;28;20734;-71
2020/12/20 02:20:25;;;;;;;336.67;63.10;;;;;;;-2.77;100.00;99957.25;2112439;28;20220;-70
2020/12/20 02:21:34;;;;;;;197.18;55.75;;;;;;;-2.81;100.00;99961.19;2112560;28;20217;-71
2020/12/20 02:22:40;;;;;;;188.32;56.17;;;;;;;-2.82;100.00;99959.59;2112562;28;20299;-70
2020/12/20 02:23:43;;;;;;;300.17;63.15;;;;;;;-2.78;100.00;99959.03;2112705;28;20577;-70
2020/12/20 02:24:47;;;;;;;214.65;60.58;;;;;;;-2.74;100.00;99947.22;2112437;28;20232;-71
2020/12/20 02:26:06;;;;;;;217.82;59.70;;;;;;;-2.76;100.00;99948.41;2112579;28;20231;-70
2020/12/20 02:27:09;;;;;;;159.13;56.00;;;;;;;-2.80;100.00;99953.19;2104191;28;20315;-71
2020/12/20 02:28:19;;;;;;;167.55;57.70;;;;;;;-2.76;100.00;99948.41;2105311;28;20723;-70
2020/12/20 02:29:20;;;;;;;186.27;59.47;;;;;;;-2.81;100.00;99948.94;2104645;28;20228;-71
2020/12/20 02:30:21;;;;;;;168.03;57.23;;;;;;;-2.80;100.00;99949.75;2112848;28;20303;-71
2020/12/20 02:31:24;;;;;;;268.95;59.85;;;;;;;-2.81;100.00;99948.16;2104155;28;20225;-71
2020/12/20 02:32:26;;;;;;;241.23;59.75;;;;;;;-2.81;100.00;99956.78;2104486;28;20228;-70
2020/12/20 02:33:26;;;;;;;260.13;61.40;;;;;;;-2.82;100.00;99954.38;2104443;28;20229;-70
2020/12/20 02:34:28;;;;;;;252.38;59.30;;;;;;;-2.82;100.00;99959.59;2104292;28;20276;-70
2020/12/20 02:35:29;;;;;;;264.52;62.05;;;;;;;-2.79;100.00;99959.19;2104396;28;20270;-70
2020/12/20 02:36:30;;;;;;;294.23;60.90;;;;;;;-2.79;100.00;99957.41;2104194;28;20221;-70
2020/12/20 02:37:34;;;;;;;243.07;60.63;;;;;;;-2.85;100.00;99953.75;2111978;28;20631;-71
2020/12/20 02:38:36;;;;;;;309.83;65.65;;;;;;;-2.86;100.00;99965.19;2112262;28;20217;-71
2020/12/20 02:39:53;;;;;;;327.13;65.32;;;;;;;-2.94;100.00;99944.44;2097637;28;20699;-70
2020/12/20 02:40:54;;;;;;;316.17;63.37;;;;;;;-2.95;100.00;99955.88;2095723;28;20623;-70
2020/12/20 02:41:56;;;;;;;413.25;67.72;;;;;;;-3.03;100.00;99955.19;2095902;28;20229;-71
2020/12/20 02:42:57;;;;;;;367.90;64.20;;;;;;;-3.04;100.00;99956.16;2096007;28;20266;-71
2020/12/20 02:43:59;;;;;;;324.80;64.43;;;;;;;-3.12;100.00;99951.88;2095849;28;20629;-70
2020/12/20 02:45:01;;;;;;;243.80;61.55;;;;;;;-3.13;100.00;99958.91;2096209;28;20214;-70
2020/12/20 02:46:02;;;;;;;264.55;61.67;;;;;;;-3.09;100.00;99954.09;2095819;28;20264;-70
2020/12/20 02:47:04;;;;;;;297.67;64.28;;;;;;;-3.07;100.00;99956.53;2104139;28;20630;-70
2020/12/20 02:48:05;;;;;;;317.90;67.80;;;;;;;-3.03;100.00;99953.38;2104325;28;20609;-70
2020/12/20 02:49:08;;;;;;;449.90;69.97;;;;;;;-3.00;100.00;99942.56;2103807;28;20245;-71
2020/12/20 02:50:10;;;;;;;257.52;66.25;;;;;;;-3.01;100.00;99946.16;2104459;28;20302;-70
2020/12/20 02:51:15;;;;;;;258.95;61.08;;;;;;;-3.04;100.00;99941.31;2103898;28;20688;-70
2020/12/20 02:52:16;;;;;;;280.13;66.28;;;;;;;-3.02;100.00;99947.16;2104486;28;20270;-70
2020/12/20 02:53:20;;;;;;;414.45;69.70;;;;;;;-3.05;100.00;99952.72;2104243;28;20228;-70
2020/12/20 02:54:21;;;;;;;297.98;65.28;;;;;;;-3.09;100.00;99950.69;2104325;28;20232;-71
2020/12/20 02:55:23;;;;;;;264.05;63.55;;;;;;;-3.10;100.00;99952.50;2103836;28;20325;-71
2020/12/20 02:56:33;;;;;;;211.75;62.35;;;;;;;-3.04;100.00;99950.94;2104114;28;20828;-71
2020/12/20 02:57:35;;;;;;;248.68;61.20;;;;;;;-3.06;100.00;99955.53;2104300;28;20349;-71
2020/12/20 02:58:52;;;;;;;228.20;59.72;;;;;;;-3.11;100.00;99952.69;2097295;28;20698;-73
2020/12/20 02:59:57;;;;;;;278.70;61.15;;;;;;;-3.10;100.00;99957.72;2112558;28;20216;-71
2020/12/20 03:00:59;;;;;;;223.93;58.70;;;;;;;-3.10;100.00;99964.75;2104231;28;20221;-71
2020/12/20 03:01:59;;;;;;;296.08;65.88;;;;;;;-3.17;100.00;99952.41;2104225;28;20312;-70
2020/12/20 03:03:01;;;;;;;202.70;59.03;;;;;;;-3.01;100.00;99958.41;2104193;28;20225;-71
2020/12/20 03:04:02;;;;;;;237.63;64.70;;;;;;;-3.03;100.00;99958.59;2112568;28;20220;-71
2020/12/20 03:05:03;;;;;;;222.77;59.27;;;;;;;-2.99;100.00;99954.59;2112611;28;20220;-69
2020/12/20 03:06:04;;;;;;;223.48;59.90;;;;;;;-2.94;100.00;99957.47;2104337;28;20536;-70
2020/12/20 03:07:05;;;;;;;226.50;60.93;;;;;;;-2.98;100.00;99956.22;2104298;28;20233;-70
2020/12/20 03:08:06;;;;;;;298.42;59.45;;;;;;;-2.98;100.00;99958.84;2112416;28;20454;-70
2020/12/20 03:09:08;;;;;;;215.43;61.37;;;;;;;-3.00;100.00;99944.34;2112234;28;20341;-71
2020/12/20 03:10:10;;;;;;;203.25;60.58;;;;;;;-2.97;100.00;99947.38;2105028;28;20316;-70
2020/12/20 03:11:12;;;;;;;234.83;58.77;;;;;;;-2.94;100.00;99944.44;2102902;28;20704;-70
2020/12/20 03:12:14;;;;;;;214.32;56.80;;;;;;;-2.87;100.00;99954.91;2105937;28;20217;-70
2020/12/20 03:13:15;;;;;;;399.67;63.10;;;;;;;-3.01;100.00;99945.34;2119971;27;20265;-70
2020/12/20 03:14:16;;;;;;;310.13;60.85;;;;;;;-3.05;100.00;99941.47;2114219;28;20338;-71
2020/12/20 03:15:25;;;;;;;229.43;58.45;;;;;;;-3.06;100.00;99951.13;2106342;28;20267;-70
2020/12/20 03:16:27;;;;;;;200.55;55.28;;;;;;;-3.00;100.00;99952.19;2105636;28;20683;-71
2020/12/20 03:17:29;;;;;;;336.13;64.80;;;;;;;-2.98;100.00;99947.59;2113987;28;20708;-70
2020/12/20 03:18:29;;;;;;;268.75;59.83;;;;;;;-3.00;100.00;99945.16;2105616;28;20300;-71
2020/12/20 03:19:33;;;;;;;189.48;55.95;;;;;;;-2.88;100.00;99950.69;2114167;28;20216;-70
2020/12/20 03:20:36;;;;;;;258.85;59.83;;;;;;;-2.93;100.00;99953.88;2114084;28;20567;-70
2020/12/20 03:21:37;;;;;;;287.42;64.13;;;;;;;-2.98;100.00;99945.78;2105303;28;20543;-70
2020/12/20 03:22:59;;;;;;;276.20;56.55;;;;;;;-2.98;100.00;99950.19;2092114;27;20252;-70
2020/12/20 03:24:31;;;;;;;220.95;55.20;;;;;;;-3.01;100.00;99947.97;2113282;28;20249;-70
2020/12/20 03:26:06;;;;;;;189.73;53.75;;;;;;;-3.09;100.00;99958.53;2109605;28;20274;-70
2020/12/20 03:27:26;;;;;;;257.20;58.03;;;;;;;-3.15;100.00;99954.84;2116614;27;20228;-71
2020/12/20 03:28:50;;;;;;;213.63;57.28;;;;;;;-3.11;100.00;99948.28;2114205;27;20303;-70
2020/12/20 03:30:17;;;;;;;240.18;56.60;;;;;;;-3.05;100.00;99950.13;2097460;27;20276;-70
2020/12/20 03:31:54;;;;;;;216.68;54.95;;;;;;;-3.05;100.00;99954.53;2096102;28;20275;-70
2020/12/20 03:33:15;;;;;;;195.60;55.50;;;;;;;-2.98;100.00;99953.59;2088304;28;20223;-71
2020/12/20 03:34:36;;;;;;;247.40;55.78;;;;;;;-3.00;100.00;99945.16;2064438;28;20229;-70
2020/12/20 03:35:46;;;;;;;213.65;54.83;;;;;;;-2.95;100.00;99963.69;2110511;28;20596;-70
2020/12/20 03:36:48;;;;;;;162.98;51.67;;;;;;;-2.98;100.00;99964.06;2105599;28;20221;-70
2020/12/20 03:37:53;;;;;;;190.38;55.17;;;;;;;-2.98;100.00;99960.63;2105578;28;20230;-74
2020/12/20 03:38:57;;;;;;;187.65;54.67;;;;;;;-2.93;100.00;99964.31;2113895;28;20224;-70
2020/12/20 03:39:59;;;;;;;160.48;55.85;;;;;;;-3.01;100.00;99958.41;2109710;28;20266;-70
2020/12/20 03:41:01;;;;;;;190.48;54.78;;;;;;;-2.95;100.00;99960.28;2105677;28;20249;-70
2020/12/20 03:42:02;;;;;;;163.55;54.58;;;;;;;-3.05;100.00;99957.94;2113852;28;20250;-71
2020/12/20 03:43:04;;;;;;;212.23;59.08;;;;;;;-2.94;100.00;99962.69;2109738;28;20279;-70
2020/12/20 03:44:08;;;;;;;180.55;52.83;;;;;;;-2.98;100.00;99965.84;2113457;28;20225;-71
2020/12/20 03:45:10;;;;;;;178.80;54.23;;;;;;;-2.92;100.00;99957.28;2114005;28;20251;-70
2020/12/20 03:46:10;;;;;;;232.00;56.15;;;;;;;-2.91;100.00;99957.09;2113373;28;20255;-71
2020/12/20 03:47:18;;;;;;;215.88;54.80;;;;;;;-2.90;100.00;99957.91;2103376;28;20213;-70
2020/12/20 03:48:19;;;;;;;165.05;50.47;;;;;;;-2.90;100.00;99965.75;2099230;28;20692;-70
2020/12/20 03:49:21;;;;;;;167.47;54.37;;;;;;;-2.95;100.00;99955.88;2097079;28;20556;-70
2020/12/20 03:50:22;;;;;;;190.82;52.83;;;;;;;-2.98;100.00;99956.22;2100937;28;20222;-71
2020/12/20 03:51:23;;;;;;;177.13;53.97;;;;;;;-2.94;100.00;99960.09;2098906;28;20228;-71
2020/12/20 03:52:31;;;;;;;220.27;55.00;;;;;;;-2.97;100.00;99960.44;2097892;28;20487;-70
2020/12/20 03:53:38;;;;;;;187.77;53.38;;;;;;;-3.04;100.00;99966.59;2104869;28;20756;-70
2020/12/20 03:54:43;;;;;;;199.80;54.45;;;;;;;-3.06;100.00;99956.34;2097493;28;20753;-70
2020/12/20 03:55:45;;;;;;;302.33;58.07;;;;;;;-3.10;100.00;99962.13;2096977;28;20656;-70
2020/12/20 03:56:46;;;;;;;251.02;56.72;;;;;;;-3.13;100.00;99964.13;2105320;28;20217;-70
2020/12/20 03:57:53;;;;;;;211.65;55.90;;;;;;;-3.07;100.00;99962.56;2105024;28;20221;-70
2020/12/20 03:58:58;;;;;;;235.00;54.47;;;;;;;-3.11;100.00;99966.53;2097600;28;20222;-70
2020/12/20 04:00:01;;;;;;;160.57;53.95;;;;;;;-3.18;100.00;99963.03;2098649;28;20316;-70
2020/12/20 04:01:02;;;;;;;152.20;53.83;;;;;;;-3.17;100.00;99964.66;2113092;28;20226;-70
2020/12/20 04:02:07;;;;;;;201.40;49.88;;;;;;;-3.15;100.00;99968.69;2105559;28;20229;-73
2020/12/20 04:03:08;;;;;;;127.82;48.35;;;;;;;-3.12;100.00;99967.53;2105335;28;20232;-70
2020/12/20 04:04:16;;;;;;;180.57;53.33;;;;;;;-3.10;100.00;99967.34;2113845;28;20220;-70
2020/12/20 04:05:19;;;;;;;140.50;50.70;;;;;;;-3.16;100.00;99959.25;2105915;28;20322;-70
2020/12/20 04:06:22;;;;;;;175.70;52.70;;;;;;;-3.20;100.00;99963.22;2096906;28;20773;-71
2020/12/20 04:07:23;;;;;;;176.88;54.33;;;;;;;-3.34;100.00;99956.25;2099079;28;20229;-70
2020/12/20 04:08:27;;;;;;;175.95;54.40;;;;;;;-3.20;100.00;99975.47;2105433;28;20225;-70
2020/12/20 04:09:51;;;;;;;161.75;50.25;;;;;;;-3.24;100.00;99972.41;2108332;28;20231;-70
2020/12/20 04:10:57;;;;;;;172.65;50.85;;;;;;;-3.24;100.00;99977.63;2105468;28;20226;-70
2020/12/20 04:11:58;;;;;;;188.65;51.88;;;;;;;-3.21;100.00;99977.28;2105387;28;20225;-70
2020/12/20 04:13:00;;;;;;;208.57;53.53;;;;;;;-3.23;100.00;99971.41;2105421;28;20229;-70
2020/12/20 04:14:06;;;;;;;277.58;56.45;;;;;;;-3.27;100.00;99975.41;2105634;28;20228;-70
2020/12/20 04:15:10;;;;;;;215.23;57.05;;;;;;;-3.31;100.00;99975.94;2113508;27;20654;-70
2020/12/20 04:16:11;;;;;;;186.47;53.27;;;;;;;-3.36;100.00;99980.91;2113590;28;20284;-70
2020/12/20 04:17:13;;;;;;;192.05;53.83;;;;;;;-3.37;100.00;99977.50;2104945;28;20659;-71
2020/12/20 04:18:15;;;;;;;241.20;54.70;;;;;;;-3.38;100.00;99975.88;2105195;28;20217;-70
2020/12/20 04:19:16;;;;;;;177.07;52.45;;;;;;;-3.38;100.00;99969.84;2105448;28;20217;-70
2020/12/20 04:20:23;;;;;;;201.48;56.97;;;;;;;-3.37;100.00;99971.47;2105249;28;20228;-70
2020/12/20 04:21:28;;;;;;;184.38;53.83;;;;;;;-3.30;100.00;99972.31;2105167;28;20221;-70
2020/12/20 04:22:29;;;;;;;169.37;53.47;;;;;;;-3.39;100.00;99973.44;2104896;28;20308;-70
2020/12/20 04:23:58;;;;;;;224.68;55.65;;;;;;;-3.31;100.00;99983.75;2099395;27;20762;-71
2020/12/20 04:25:02;;;;;;;216.70;55.58;;;;;;;-3.36;100.00;99975.69;2113379;28;20779;-70
2020/12/20 04:26:13;;;;;;;210.27;56.28;;;;;;;-3.41;100.00;99977.03;2106091;28;20229;-70
2020/12/20 04:27:33;;;;;;;155.25;52.97;;;;;;;-3.44;100.00;99977.41;2107727;28;20224;-70
2020/12/20 04:28:37;;;;;;;222.77;56.83;;;;;;;-3.37;100.00;99977.50;2105052;28;20241;-72
2020/12/20 04:29:48;;;;;;;213.45;58.20;;;;;;;-3.34;100.00;99971.09;2113433;28;20304;-71
2020/12/20 04:30:51;;;;;;;164.45;54.53;;;;;;;-3.26;100.00;99978.81;2105045;28;20590;-70
2020/12/20 04:31:57;;;;;;;210.77;56.47;;;;;;;-3.21;100.00;99966.03;2112974;28;20311;-70
2020/12/20 04:32:58;;;;;;;176.10;56.55;;;;;;;-3.17;100.00;99967.28;2113508;28;20225;-70
2020/12/20 04:33:59;;;;;;;188.33;54.00;;;;;;;-3.21;100.00;99966.03;2104676;28;20232;-70
2020/12/20 04:35:00;;;;;;;161.93;53.20;;;;;;;-3.23;100.00;99965.38;2104826;28;20324;-70
2020/12/20 04:36:01;;;;;;;179.43;54.10;;;;;;;-3.27;100.00;99966.75;2104765;28;20233;-70
2020/12/20 04:37:03;;;;;;;151.48;52.55;;;;;;;-3.34;100.00;99966.69;2104983;28;20226;-70
2020/12/20 04:38:24;;;;;;;160.32;51.17;;;;;;;-3.27;100.00;99974.59;2107297;28;20252;-70
2020/12/20 04:39:25;;;;;;;185.13;53.90;;;;;;;-3.27;100.00;99966.75;2104951;28;20232;-71
2020/12/20 04:40:27;;;;;;;165.88;54.08;;;;;;;-3.34;100.00;99961.47;2113527;28;20295;-71
2020/12/20 04:41:31;;;;;;;223.23;58.60;;;;;;;-3.35;100.00;99970.28;2105284;28;20296;-70
2020/12/20 04:42:39;;;;;;;206.25;56.38;;;;;;;-3.37;100.00;99963.63;2105398;28;20291;-73
2020/12/20 04:43:40;;;;;;;212.20;56.58;;;;;;;-3.36;100.00;99962.66;2105267;28;20308;-70
2020/12/20 04:44:42;;;;;;;197.15;56.10;;;;;;;-3.31;100.00;99958.47;2104947;28;20703;-70
2020/12/20 04:45:44;;;;;;;198.45;55.35;;;;;;;-3.29;100.00;99955.72;2105189;28;20715;-70
2020/12/20 04:46:50;;;;;;;196.73;55.75;;;;;;;-3.28;100.00;99962.53;2105873;28;20776;-70
2020/12/20 04:48:01;;;;;;;211.32;56.38;;;;;;;-3.27;100.00;99958.94;2105980;28;20245;-70